sensor_id;sensor_type;location;lat;lon;timestamp;temperature;humidity
65462;DHT22;53236;43.666;18.444;2023-04-10T00:01:15;4.30;99.90
65462;DHT22;53236;43.666;18.444;2023-04-10T00:03:41;4.20;99.90
65462;DHT22;53236;43.666;18.444;2023-04-10T00:06:07;4.10;99.90
65462;DHT22;53236;43.666;18.444;2023-04-10T00:08:32;4.20;99.90
65462;DHT22;53236;43.666;18.444;2023-04-10T00:10:58;4.20;99.90
65462;DHT22;53236;43.666;18.444;2023-04-10T00:13:24;4.20;99.90
65462;DHT22;53236;43.666;18.444;2023-04-10T00:15:49;4.20;99.90
65462;DHT22;53236;43.666;18.444;2023-04-10T00:18:15;4.20;99.90
65462;DHT22;53236;43.666;18.444;2023-04-10T00:20:41;4.20;99.90
65462;DHT22;53236;43.666;18.444;2023-04-10T00:23:08;4.20;99.90
65462;DHT22;53236;43.666;18.444;2023-04-10T00:25:33;4.20;99.90
65462;DHT22;53236;43.666;18.444;2023-04-10T00:27:59;4.10;99.90
65462;DHT22;53236;43.666;18.444;2023-04-10T00:30:25;4.20;99.90
65462;DHT22;53236;43.666;18.444;2023-04-10T00:32:52;4.10;99.90
65462;DHT22;53236;43.666;18.444;2023-04-10T00:35:17;4.20;99.90
65462;DHT22;53236;43.666;18.444;2023-04-10T00:37:43;4.20;99.90
65462;DHT22;53236;43.666;18.444;2023-04-10T00:40:09;4.20;99.90
65462;DHT22;53236;43.666;18.444;2023-04-10T00:42:35;4.20;99.90
65462;DHT22;53236;43.666;18.444;2023-04-10T00:45:00;4.20;99.90
65462;DHT22;53236;43.666;18.444;2023-04-10T00:47:27;4.10;99.90
65462;DHT22;53236;43.666;18.444;2023-04-10T00:49:53;4.10;99.90
65462;DHT22;53236;43.666;18.444;2023-04-10T00:52:19;4.10;99.90
65462;DHT22;53236;43.666;18.444;2023-04-10T00:54:44;4.20;99.90
65462;DHT22;53236;43.666;18.444;2023-04-10T00:57:11;4.10;99.90
65462;DHT22;53236;43.666;18.444;2023-04-10T00:59:37;4.10;99.90
65462;DHT22;53236;43.666;18.444;2023-04-10T01:02:03;4.10;99.90
65462;DHT22;53236;43.666;18.444;2023-04-10T01:04:29;4.10;99.90
65462;DHT22;53236;43.666;18.444;2023-04-10T01:12:50;4.20;99.90
65462;DHT22;53236;43.666;18.444;2023-04-10T01:15:20;4.10;99.90
65462;DHT22;53236;43.666;18.444;2023-04-10T01:20:24;4.20;99.90
65462;DHT22;53236;43.666;18.444;2023-04-10T01:31:11;3.90;99.90
65462;DHT22;53236;43.666;18.444;2023-04-10T01:33:42;4.00;99.90
65462;DHT22;53236;43.666;18.444;2023-04-10T01:36:12;4.00;99.90
65462;DHT22;53236;43.666;18.444;2023-04-10T01:38:43;4.00;99.90
65462;DHT22;53236;43.666;18.444;2023-04-10T01:41:10;3.90;99.90
65462;DHT22;53236;43.666;18.444;2023-04-10T01:43:39;3.90;99.90
65462;DHT22;53236;43.666;18.444;2023-04-10T01:46:06;3.90;99.90
65462;DHT22;53236;43.666;18.444;2023-04-10T01:48:32;3.80;99.90
65462;DHT22;53236;43.666;18.444;2023-04-10T01:50:59;3.80;99.90
65462;DHT22;53236;43.666;18.444;2023-04-10T01:53:26;3.80;99.90
65462;DHT22;53236;43.666;18.444;2023-04-10T01:55:52;3.90;99.90
65462;DHT22;53236;43.666;18.444;2023-04-10T01:58:19;3.90;99.90
65462;DHT22;53236;43.666;18.444;2023-04-10T02:00:45;3.90;99.90
65462;DHT22;53236;43.666;18.444;2023-04-10T02:03:10;3.90;99.90
65462;DHT22;53236;43.666;18.444;2023-04-10T02:08:26;3.80;99.90
65462;DHT22;53236;43.666;18.444;2023-04-10T02:11:24;3.80;99.90
65462;DHT22;53236;43.666;18.444;2023-04-10T02:13:46;3.80;99.90
65462;DHT22;53236;43.666;18.444;2023-04-10T02:16:14;3.80;99.90
65462;DHT22;53236;43.666;18.444;2023-04-10T02:18:44;3.80;99.90
65462;DHT22;53236;43.666;18.444;2023-04-10T02:21:10;3.80;99.90
65462;DHT22;53236;43.666;18.444;2023-04-10T02:23:36;3.70;99.90
65462;DHT22;53236;43.666;18.444;2023-04-10T02:26:07;3.70;99.90
65462;DHT22;53236;43.666;18.444;2023-04-10T02:28:33;3.70;99.90
65462;DHT22;53236;43.666;18.444;2023-04-10T02:30:58;3.70;99.90
65462;DHT22;53236;43.666;18.444;2023-04-10T02:33:24;3.70;99.90
65462;DHT22;53236;43.666;18.444;2023-04-10T02:35:50;3.70;99.90
65462;DHT22;53236;43.666;18.444;2023-04-10T02:38:16;3.70;99.90
65462;DHT22;53236;43.666;18.444;2023-04-10T02:40:41;3.70;99.90
65462;DHT22;53236;43.666;18.444;2023-04-10T02:43:07;3.70;99.90
65462;DHT22;53236;43.666;18.444;2023-04-10T02:45:32;3.70;99.90
65462;DHT22;53236;43.666;18.444;2023-04-10T02:47:58;3.70;99.90
65462;DHT22;53236;43.666;18.444;2023-04-10T02:50:24;3.70;99.90
65462;DHT22;53236;43.666;18.444;2023-04-10T02:52:54;3.70;99.90
65462;DHT22;53236;43.666;18.444;2023-04-10T02:55:19;3.70;99.90
65462;DHT22;53236;43.666;18.444;2023-04-10T02:57:45;3.60;99.90
65462;DHT22;53236;43.666;18.444;2023-04-10T03:00:11;3.70;99.90
65462;DHT22;53236;43.666;18.444;2023-04-10T03:02:37;3.70;99.90
65462;DHT22;53236;43.666;18.444;2023-04-10T03:05:03;3.70;99.90
65462;DHT22;53236;43.666;18.444;2023-04-10T03:07:29;3.70;99.90
65462;DHT22;53236;43.666;18.444;2023-04-10T03:09:56;3.70;99.90
65462;DHT22;53236;43.666;18.444;2023-04-10T03:12:22;3.80;99.90
65462;DHT22;53236;43.666;18.444;2023-04-10T03:14:48;3.80;99.90
65462;DHT22;53236;43.666;18.444;2023-04-10T03:17:13;3.80;99.90
65462;DHT22;53236;43.666;18.444;2023-04-10T03:19:39;3.80;99.90
65462;DHT22;53236;43.666;18.444;2023-04-10T03:22:05;3.80;99.90
65462;DHT22;53236;43.666;18.444;2023-04-10T03:24:30;3.80;99.90
65462;DHT22;53236;43.666;18.444;2023-04-10T03:26:56;3.80;99.90
65462;DHT22;53236;43.666;18.444;2023-04-10T03:29:23;3.80;99.90
65462;DHT22;53236;43.666;18.444;2023-04-10T03:31:48;3.80;99.90
65462;DHT22;53236;43.666;18.444;2023-04-10T03:34:14;3.70;99.90
65462;DHT22;53236;43.666;18.444;2023-04-10T03:36:40;3.80;99.90
65462;DHT22;53236;43.666;18.444;2023-04-10T03:39:05;3.70;99.90
65462;DHT22;53236;43.666;18.444;2023-04-10T03:41:31;3.70;99.90
65462;DHT22;53236;43.666;18.444;2023-04-10T03:43:57;3.60;99.90
65462;DHT22;53236;43.666;18.444;2023-04-10T03:46:22;3.50;99.90
65462;DHT22;53236;43.666;18.444;2023-04-10T03:48:48;3.40;99.90
65462;DHT22;53236;43.666;18.444;2023-04-10T03:51:15;3.40;99.90
65462;DHT22;53236;43.666;18.444;2023-04-10T03:53:41;3.50;99.90
65462;DHT22;53236;43.666;18.444;2023-04-10T03:56:07;3.50;99.90
65462;DHT22;53236;43.666;18.444;2023-04-10T03:58:33;3.40;99.90
65462;DHT22;53236;43.666;18.444;2023-04-10T04:00:58;3.40;99.90
65462;DHT22;53236;43.666;18.444;2023-04-10T04:03:24;3.40;99.90
65462;DHT22;53236;43.666;18.444;2023-04-10T04:05:50;3.40;99.90
65462;DHT22;53236;43.666;18.444;2023-04-10T04:08:16;3.40;99.90
65462;DHT22;53236;43.666;18.444;2023-04-10T04:10:42;3.40;99.90
65462;DHT22;53236;43.666;18.444;2023-04-10T04:13:08;3.50;99.90
65462;DHT22;53236;43.666;18.444;2023-04-10T04:15:33;3.50;99.90
65462;DHT22;53236;43.666;18.444;2023-04-10T04:17:59;3.50;99.90
65462;DHT22;53236;43.666;18.444;2023-04-10T04:20:25;3.50;99.90
65462;DHT22;53236;43.666;18.444;2023-04-10T04:22:51;3.50;99.90
65462;DHT22;53236;43.666;18.444;2023-04-10T04:25:16;3.50;99.90
65462;DHT22;53236;43.666;18.444;2023-04-10T04:27:44;3.50;99.90
65462;DHT22;53236;43.666;18.444;2023-04-10T04:30:10;3.50;99.90
65462;DHT22;53236;43.666;18.444;2023-04-10T04:32:36;3.50;99.90
65462;DHT22;53236;43.666;18.444;2023-04-10T04:35:02;3.50;99.90
65462;DHT22;53236;43.666;18.444;2023-04-10T04:37:27;3.50;99.90
65462;DHT22;53236;43.666;18.444;2023-04-10T04:39:53;3.60;99.90
65462;DHT22;53236;43.666;18.444;2023-04-10T04:42:18;3.60;99.90
65462;DHT22;53236;43.666;18.444;2023-04-10T04:44:44;3.70;99.90
65462;DHT22;53236;43.666;18.444;2023-04-10T04:47:10;3.70;99.90
65462;DHT22;53236;43.666;18.444;2023-04-10T04:49:36;3.70;99.90
65462;DHT22;53236;43.666;18.444;2023-04-10T04:52:01;3.60;99.90
65462;DHT22;53236;43.666;18.444;2023-04-10T04:54:27;3.70;99.90
65462;DHT22;53236;43.666;18.444;2023-04-10T04:56:53;3.70;99.90
65462;DHT22;53236;43.666;18.444;2023-04-10T04:59:18;3.70;99.90
65462;DHT22;53236;43.666;18.444;2023-04-10T05:01:44;3.70;99.90
65462;DHT22;53236;43.666;18.444;2023-04-10T05:04:10;3.70;99.90
65462;DHT22;53236;43.666;18.444;2023-04-10T05:06:36;3.70;99.90
65462;DHT22;53236;43.666;18.444;2023-04-10T05:09:01;3.70;99.90
65462;DHT22;53236;43.666;18.444;2023-04-10T05:11:27;3.70;99.90
65462;DHT22;53236;43.666;18.444;2023-04-10T05:13:53;3.80;99.90
65462;DHT22;53236;43.666;18.444;2023-04-10T05:16:18;3.80;99.90
65462;DHT22;53236;43.666;18.444;2023-04-10T05:18:45;3.80;99.90
65462;DHT22;53236;43.666;18.444;2023-04-10T05:21:11;3.90;99.90
65462;DHT22;53236;43.666;18.444;2023-04-10T05:23:36;3.90;99.90
65462;DHT22;53236;43.666;18.444;2023-04-10T05:26:02;3.90;99.90
65462;DHT22;53236;43.666;18.444;2023-04-10T05:28:28;3.90;99.90
65462;DHT22;53236;43.666;18.444;2023-04-10T05:30:53;3.90;99.90
65462;DHT22;53236;43.666;18.444;2023-04-10T05:33:19;4.00;99.90
65462;DHT22;53236;43.666;18.444;2023-04-10T05:35:45;3.90;99.90
65462;DHT22;53236;43.666;18.444;2023-04-10T05:38:11;4.00;99.90
65462;DHT22;53236;43.666;18.444;2023-04-10T05:40:36;3.90;99.90
65462;DHT22;53236;43.666;18.444;2023-04-10T05:43:02;3.90;99.90
65462;DHT22;53236;43.666;18.444;2023-04-10T05:45:28;3.80;99.90
65462;DHT22;53236;43.666;18.444;2023-04-10T05:47:54;3.90;99.90
65462;DHT22;53236;43.666;18.444;2023-04-10T05:50:20;3.80;99.90
65462;DHT22;53236;43.666;18.444;2023-04-10T05:52:46;3.80;99.90
65462;DHT22;53236;43.666;18.444;2023-04-10T05:55:11;3.80;99.90
65462;DHT22;53236;43.666;18.444;2023-04-10T05:57:38;3.80;99.90
65462;DHT22;53236;43.666;18.444;2023-04-10T06:00:04;3.90;99.90
65462;DHT22;53236;43.666;18.444;2023-04-10T06:02:31;3.90;99.90
65462;DHT22;53236;43.666;18.444;2023-04-10T06:04:57;3.90;99.90
65462;DHT22;53236;43.666;18.444;2023-04-10T06:07:23;3.90;99.90
65462;DHT22;53236;43.666;18.444;2023-04-10T06:09:48;4.00;99.90
65462;DHT22;53236;43.666;18.444;2023-04-10T06:12:14;4.00;99.90
65462;DHT22;53236;43.666;18.444;2023-04-10T06:14:41;4.10;99.90
65462;DHT22;53236;43.666;18.444;2023-04-10T06:17:06;4.10;99.90
65462;DHT22;53236;43.666;18.444;2023-04-10T06:19:32;4.20;99.90
65462;DHT22;53236;43.666;18.444;2023-04-10T06:21:58;4.30;99.90
65462;DHT22;53236;43.666;18.444;2023-04-10T06:24:23;4.20;99.90
65462;DHT22;53236;43.666;18.444;2023-04-10T06:26:49;4.20;99.90
65462;DHT22;53236;43.666;18.444;2023-04-10T06:29:15;4.30;99.90
65462;DHT22;53236;43.666;18.444;2023-04-10T06:31:41;4.30;99.90
65462;DHT22;53236;43.666;18.444;2023-04-10T06:34:06;4.40;99.90
65462;DHT22;53236;43.666;18.444;2023-04-10T06:36:32;4.50;99.90
65462;DHT22;53236;43.666;18.444;2023-04-10T06:38:58;4.50;99.90
65462;DHT22;53236;43.666;18.444;2023-04-10T06:41:24;4.60;99.90
65462;DHT22;53236;43.666;18.444;2023-04-10T06:43:49;4.60;99.90
65462;DHT22;53236;43.666;18.444;2023-04-10T06:46:15;4.70;99.90
65462;DHT22;53236;43.666;18.444;2023-04-10T06:48:42;4.70;99.90
65462;DHT22;53236;43.666;18.444;2023-04-10T06:51:07;4.70;99.90
65462;DHT22;53236;43.666;18.444;2023-04-10T06:53:33;4.70;99.90
65462;DHT22;53236;43.666;18.444;2023-04-10T06:55:59;4.70;99.90
65462;DHT22;53236;43.666;18.444;2023-04-10T06:58:24;4.60;99.90
65462;DHT22;53236;43.666;18.444;2023-04-10T07:00:50;4.70;99.90
65462;DHT22;53236;43.666;18.444;2023-04-10T07:03:16;4.70;99.90
65462;DHT22;53236;43.666;18.444;2023-04-10T07:05:42;4.70;99.90
65462;DHT22;53236;43.666;18.444;2023-04-10T07:08:07;4.70;99.90
65462;DHT22;53236;43.666;18.444;2023-04-10T07:10:33;4.70;99.90
65462;DHT22;53236;43.666;18.444;2023-04-10T07:13:00;4.70;99.90
65462;DHT22;53236;43.666;18.444;2023-04-10T07:15:25;4.70;99.90
65462;DHT22;53236;43.666;18.444;2023-04-10T07:17:51;4.60;99.90
65462;DHT22;53236;43.666;18.444;2023-04-10T07:20:17;4.60;99.90
65462;DHT22;53236;43.666;18.444;2023-04-10T07:22:42;4.70;99.90
65462;DHT22;53236;43.666;18.444;2023-04-10T07:25:09;4.70;99.90
65462;DHT22;53236;43.666;18.444;2023-04-10T07:27:35;4.70;99.90
65462;DHT22;53236;43.666;18.444;2023-04-10T07:30:01;4.70;99.90
65462;DHT22;53236;43.666;18.444;2023-04-10T07:32:27;4.70;99.90
65462;DHT22;53236;43.666;18.444;2023-04-10T07:34:52;4.70;99.90
65462;DHT22;53236;43.666;18.444;2023-04-10T07:37:18;4.70;99.90
65462;DHT22;53236;43.666;18.444;2023-04-10T07:39:44;4.70;99.90
65462;DHT22;53236;43.666;18.444;2023-04-10T07:42:10;4.70;99.90
65462;DHT22;53236;43.666;18.444;2023-04-10T07:44:36;4.70;99.90
65462;DHT22;53236;43.666;18.444;2023-04-10T07:47:02;4.70;99.90
65462;DHT22;53236;43.666;18.444;2023-04-10T07:49:28;4.80;99.90
65462;DHT22;53236;43.666;18.444;2023-04-10T07:51:54;4.80;99.90
65462;DHT22;53236;43.666;18.444;2023-04-10T07:54:19;4.80;99.90
65462;DHT22;53236;43.666;18.444;2023-04-10T07:56:45;4.70;99.90
65462;DHT22;53236;43.666;18.444;2023-04-10T07:59:11;4.70;99.90
65462;DHT22;53236;43.666;18.444;2023-04-10T08:01:37;4.60;99.90
65462;DHT22;53236;43.666;18.444;2023-04-10T08:04:02;4.50;99.90
65462;DHT22;53236;43.666;18.444;2023-04-10T08:06:28;4.50;99.90
65462;DHT22;53236;43.666;18.444;2023-04-10T08:08:56;4.50;99.90
65462;DHT22;53236;43.666;18.444;2023-04-10T08:11:28;4.50;99.90
65462;DHT22;53236;43.666;18.444;2023-04-10T08:13:56;4.50;99.90
65462;DHT22;53236;43.666;18.444;2023-04-10T08:16:26;4.50;99.90
65462;DHT22;53236;43.666;18.444;2023-04-10T08:18:53;4.60;99.90
65462;DHT22;53236;43.666;18.444;2023-04-10T08:21:20;4.60;99.90
65462;DHT22;53236;43.666;18.444;2023-04-10T08:23:48;4.70;99.90
65462;DHT22;53236;43.666;18.444;2023-04-10T08:26:14;4.70;99.90
65462;DHT22;53236;43.666;18.444;2023-04-10T08:28:40;4.70;99.90
65462;DHT22;53236;43.666;18.444;2023-04-10T08:31:06;4.70;99.90
65462;DHT22;53236;43.666;18.444;2023-04-10T08:33:32;4.70;99.90
65462;DHT22;53236;43.666;18.444;2023-04-10T08:35:57;4.80;99.90
65462;DHT22;53236;43.666;18.444;2023-04-10T08:38:23;4.80;99.90
65462;DHT22;53236;43.666;18.444;2023-04-10T08:40:52;4.80;99.90
65462;DHT22;53236;43.666;18.444;2023-04-10T08:43:17;4.90;99.90
65462;DHT22;53236;43.666;18.444;2023-04-10T08:45:44;5.00;99.90
65462;DHT22;53236;43.666;18.444;2023-04-10T08:48:10;5.00;99.90
65462;DHT22;53236;43.666;18.444;2023-04-10T08:50:41;5.00;99.90
65462;DHT22;53236;43.666;18.444;2023-04-10T08:53:11;5.00;99.90
65462;DHT22;53236;43.666;18.444;2023-04-10T08:55:38;4.90;99.90
65462;DHT22;53236;43.666;18.444;2023-04-10T08:58:05;5.10;99.90
65462;DHT22;53236;43.666;18.444;2023-04-10T09:00:35;5.20;99.90
65462;DHT22;53236;43.666;18.444;2023-04-10T09:03:04;5.20;99.90
65462;DHT22;53236;43.666;18.444;2023-04-10T09:05:34;5.20;99.90
65462;DHT22;53236;43.666;18.444;2023-04-10T09:08:00;5.20;99.90
65462;DHT22;53236;43.666;18.444;2023-04-10T09:10:25;5.10;99.90
65462;DHT22;53236;43.666;18.444;2023-04-10T09:12:51;5.20;99.90
65462;DHT22;53236;43.666;18.444;2023-04-10T09:15:17;5.20;99.90
65462;DHT22;53236;43.666;18.444;2023-04-10T09:20:23;5.10;99.90
65462;DHT22;53236;43.666;18.444;2023-04-10T09:22:49;5.00;99.90
65462;DHT22;53236;43.666;18.444;2023-04-10T09:25:38;4.90;99.90
65462;DHT22;53236;43.666;18.444;2023-04-10T09:28:06;4.90;99.90
65462;DHT22;53236;43.666;18.444;2023-04-10T09:30:41;4.90;99.90
65462;DHT22;53236;43.666;18.444;2023-04-10T09:33:24;4.90;99.90
65462;DHT22;53236;43.666;18.444;2023-04-10T09:35:53;5.00;99.90
65462;DHT22;53236;43.666;18.444;2023-04-10T09:38:20;4.90;99.90
65462;DHT22;53236;43.666;18.444;2023-04-10T09:40:46;4.90;99.90
65462;DHT22;53236;43.666;18.444;2023-04-10T09:45:49;5.00;99.90
65462;DHT22;53236;43.666;18.444;2023-04-10T09:48:15;5.00;99.90
65462;DHT22;53236;43.666;18.444;2023-04-10T09:50:41;5.00;99.90
65462;DHT22;53236;43.666;18.444;2023-04-10T09:53:14;5.10;99.90
65462;DHT22;53236;43.666;18.444;2023-04-10T09:55:41;5.20;99.90
65462;DHT22;53236;43.666;18.444;2023-04-10T09:58:08;5.10;99.90
65462;DHT22;53236;43.666;18.444;2023-04-10T10:00:38;5.10;99.90
65462;DHT22;53236;43.666;18.444;2023-04-10T10:03:07;5.20;99.90
65462;DHT22;53236;43.666;18.444;2023-04-10T10:05:39;5.20;99.90
65462;DHT22;53236;43.666;18.444;2023-04-10T10:08:07;5.20;99.90
65462;DHT22;53236;43.666;18.444;2023-04-10T10:10:33;5.20;99.90
65462;DHT22;53236;43.666;18.444;2023-04-10T10:13:01;5.30;99.90
65462;DHT22;53236;43.666;18.444;2023-04-10T10:20:58;5.50;99.90
65462;DHT22;53236;43.666;18.444;2023-04-10T10:23:25;5.40;99.90
65462;DHT22;53236;43.666;18.444;2023-04-10T10:25:53;5.30;99.90
65462;DHT22;53236;43.666;18.444;2023-04-10T10:28:19;5.20;99.90
65462;DHT22;53236;43.666;18.444;2023-04-10T10:30:46;5.30;99.90
65462;DHT22;53236;43.666;18.444;2023-04-10T10:33:14;5.20;99.90
65462;DHT22;53236;43.666;18.444;2023-04-10T10:35:40;5.20;99.90
65462;DHT22;53236;43.666;18.444;2023-04-10T10:38:07;5.20;99.90
65462;DHT22;53236;43.666;18.444;2023-04-10T10:44:28;5.20;99.90
65462;DHT22;53236;43.666;18.444;2023-04-10T10:46:42;5.20;99.90
65462;DHT22;53236;43.666;18.444;2023-04-10T10:49:08;5.30;99.90
65462;DHT22;53236;43.666;18.444;2023-04-10T10:52:00;5.30;99.90
65462;DHT22;53236;43.666;18.444;2023-04-10T10:54:30;5.10;99.90
65462;DHT22;53236;43.666;18.444;2023-04-10T10:56:57;5.10;99.90
65462;DHT22;53236;43.666;18.444;2023-04-10T11:02:17;5.10;99.90
65462;DHT22;53236;43.666;18.444;2023-04-10T11:04:47;5.10;99.90
65462;DHT22;53236;43.666;18.444;2023-04-10T11:07:14;5.10;99.90
65462;DHT22;53236;43.666;18.444;2023-04-10T11:12:14;5.20;99.90
65462;DHT22;53236;43.666;18.444;2023-04-10T11:14:41;5.30;99.90
65462;DHT22;53236;43.666;18.444;2023-04-10T11:17:08;5.40;99.90
65462;DHT22;53236;43.666;18.444;2023-04-10T11:20:09;5.40;99.90
65462;DHT22;53236;43.666;18.444;2023-04-10T11:25:52;5.30;99.90
65462;DHT22;53236;43.666;18.444;2023-04-10T11:31:20;5.60;99.90
65462;DHT22;53236;43.666;18.444;2023-04-10T11:36:22;5.80;99.90
65462;DHT22;53236;43.666;18.444;2023-04-10T11:39:02;5.80;99.90
65462;DHT22;53236;43.666;18.444;2023-04-10T11:41:41;5.90;99.90
65462;DHT22;53236;43.666;18.444;2023-04-10T11:44:10;5.90;99.90
65462;DHT22;53236;43.666;18.444;2023-04-10T11:46:46;6.10;99.90
65462;DHT22;53236;43.666;18.444;2023-04-10T11:49:17;6.10;99.90
65462;DHT22;53236;43.666;18.444;2023-04-10T11:51:46;6.20;99.90
65462;DHT22;53236;43.666;18.444;2023-04-10T11:54:13;6.10;99.90
65462;DHT22;53236;43.666;18.444;2023-04-10T11:56:41;6.10;99.90
65462;DHT22;53236;43.666;18.444;2023-04-10T11:59:08;6.00;99.90
65462;DHT22;53236;43.666;18.444;2023-04-10T12:01:44;5.80;99.90
65462;DHT22;53236;43.666;18.444;2023-04-10T12:04:17;5.60;99.90
65462;DHT22;53236;43.666;18.444;2023-04-10T12:06:55;5.60;99.90
65462;DHT22;53236;43.666;18.444;2023-04-10T12:09:22;5.40;99.90
65462;DHT22;53236;43.666;18.444;2023-04-10T12:11:49;5.40;99.90
65462;DHT22;53236;43.666;18.444;2023-04-10T12:14:19;5.40;99.90
65462;DHT22;53236;43.666;18.444;2023-04-10T12:16:46;5.50;99.90
65462;DHT22;53236;43.666;18.444;2023-04-10T12:19:13;5.50;99.90
65462;DHT22;53236;43.666;18.444;2023-04-10T12:21:40;5.60;99.90
65462;DHT22;53236;43.666;18.444;2023-04-10T12:24:09;5.50;99.90
65462;DHT22;53236;43.666;18.444;2023-04-10T12:26:35;5.60;99.90
65462;DHT22;53236;43.666;18.444;2023-04-10T12:29:01;5.60;99.90
65462;DHT22;53236;43.666;18.444;2023-04-10T12:31:28;5.50;99.90
65462;DHT22;53236;43.666;18.444;2023-04-10T12:33:55;5.60;99.90
65462;DHT22;53236;43.666;18.444;2023-04-10T12:36:24;5.60;99.90
65462;DHT22;53236;43.666;18.444;2023-04-10T12:38:58;5.60;99.90
65462;DHT22;53236;43.666;18.444;2023-04-10T12:41:27;5.60;99.90
65462;DHT22;53236;43.666;18.444;2023-04-10T12:44:09;5.50;99.90
65462;DHT22;53236;43.666;18.444;2023-04-10T12:46:35;5.50;99.90
65462;DHT22;53236;43.666;18.444;2023-04-10T12:49:17;5.50;99.90
65462;DHT22;53236;43.666;18.444;2023-04-10T12:51:47;5.40;99.90
65462;DHT22;53236;43.666;18.444;2023-04-10T12:54:46;5.40;99.90
65462;DHT22;53236;43.666;18.444;2023-04-10T12:57:25;5.40;99.90
65462;DHT22;53236;43.666;18.444;2023-04-10T12:59:51;5.50;99.90
65462;DHT22;53236;43.666;18.444;2023-04-10T13:02:17;5.30;99.90
65462;DHT22;53236;43.666;18.444;2023-04-10T13:04:45;5.30;99.90
65462;DHT22;53236;43.666;18.444;2023-04-10T13:07:11;5.40;99.90
65462;DHT22;53236;43.666;18.444;2023-04-10T13:09:37;5.30;99.90
65462;DHT22;53236;43.666;18.444;2023-04-10T13:12:03;5.30;99.90
65462;DHT22;53236;43.666;18.444;2023-04-10T13:14:31;5.40;99.90
65462;DHT22;53236;43.666;18.444;2023-04-10T13:16:57;5.30;99.90
65462;DHT22;53236;43.666;18.444;2023-04-10T13:19:23;5.30;99.90
65462;DHT22;53236;43.666;18.444;2023-04-10T13:21:48;5.30;99.90
65462;DHT22;53236;43.666;18.444;2023-04-10T13:24:16;5.30;99.90
65462;DHT22;53236;43.666;18.444;2023-04-10T13:26:41;5.20;99.90
65462;DHT22;53236;43.666;18.444;2023-04-10T13:29:07;5.30;99.90
65462;DHT22;53236;43.666;18.444;2023-04-10T13:31:33;5.20;99.90
65462;DHT22;53236;43.666;18.444;2023-04-10T13:33:58;5.20;99.90
65462;DHT22;53236;43.666;18.444;2023-04-10T13:36:24;5.20;99.90
65462;DHT22;53236;43.666;18.444;2023-04-10T13:38:51;5.20;99.90
65462;DHT22;53236;43.666;18.444;2023-04-10T13:41:16;5.10;99.90
65462;DHT22;53236;43.666;18.444;2023-04-10T13:43:42;5.10;99.90
65462;DHT22;53236;43.666;18.444;2023-04-10T13:46:08;5.20;99.90
65462;DHT22;53236;43.666;18.444;2023-04-10T13:48:33;5.10;99.90
65462;DHT22;53236;43.666;18.444;2023-04-10T13:51:06;5.10;99.90
65462;DHT22;53236;43.666;18.444;2023-04-10T13:53:31;5.00;99.90
65462;DHT22;53236;43.666;18.444;2023-04-10T13:55:57;5.00;99.90
65462;DHT22;53236;43.666;18.444;2023-04-10T13:58:23;5.00;99.90
65462;DHT22;53236;43.666;18.444;2023-04-10T14:00:50;5.00;99.90
65462;DHT22;53236;43.666;18.444;2023-04-10T14:03:16;5.00;99.90
65462;DHT22;53236;43.666;18.444;2023-04-10T14:05:42;5.00;99.90
65462;DHT22;53236;43.666;18.444;2023-04-10T14:08:09;5.00;99.90
65462;DHT22;53236;43.666;18.444;2023-04-10T14:10:36;5.00;99.90
65462;DHT22;53236;43.666;18.444;2023-04-10T14:13:04;5.00;99.90
65462;DHT22;53236;43.666;18.444;2023-04-10T14:15:31;5.10;99.90
65462;DHT22;53236;43.666;18.444;2023-04-10T14:17:57;5.10;99.90
65462;DHT22;53236;43.666;18.444;2023-04-10T14:20:22;5.20;99.90
65462;DHT22;53236;43.666;18.444;2023-04-10T14:22:48;5.20;99.90
65462;DHT22;53236;43.666;18.444;2023-04-10T14:25:14;5.20;99.90
65462;DHT22;53236;43.666;18.444;2023-04-10T14:27:41;5.30;99.90
65462;DHT22;53236;43.666;18.444;2023-04-10T14:30:07;5.30;99.90
65462;DHT22;53236;43.666;18.444;2023-04-10T14:32:33;5.30;99.90
65462;DHT22;53236;43.666;18.444;2023-04-10T14:34:59;5.20;99.90
65462;DHT22;53236;43.666;18.444;2023-04-10T14:37:25;5.20;99.90
65462;DHT22;53236;43.666;18.444;2023-04-10T14:39:50;5.10;99.90
65462;DHT22;53236;43.666;18.444;2023-04-10T14:42:16;5.10;99.90
65462;DHT22;53236;43.666;18.444;2023-04-10T14:44:42;5.10;99.90
65462;DHT22;53236;43.666;18.444;2023-04-10T14:47:07;5.10;99.90
65462;DHT22;53236;43.666;18.444;2023-04-10T14:49:33;5.10;99.90
65462;DHT22;53236;43.666;18.444;2023-04-10T14:51:59;5.10;99.90
65462;DHT22;53236;43.666;18.444;2023-04-10T14:54:24;5.10;99.90
65462;DHT22;53236;43.666;18.444;2023-04-10T14:56:50;5.20;99.90
65462;DHT22;53236;43.666;18.444;2023-04-10T14:59:16;5.20;99.90
65462;DHT22;53236;43.666;18.444;2023-04-10T15:01:42;5.10;99.90
65462;DHT22;53236;43.666;18.444;2023-04-10T15:04:08;5.10;99.90
65462;DHT22;53236;43.666;18.444;2023-04-10T15:06:34;5.10;99.90
65462;DHT22;53236;43.666;18.444;2023-04-10T15:09:00;5.10;99.90
65462;DHT22;53236;43.666;18.444;2023-04-10T15:11:26;5.20;99.90
65462;DHT22;53236;43.666;18.444;2023-04-10T15:13:51;5.30;99.90
65462;DHT22;53236;43.666;18.444;2023-04-10T15:16:17;5.30;99.90
65462;DHT22;53236;43.666;18.444;2023-04-10T15:18:46;5.30;99.90
65462;DHT22;53236;43.666;18.444;2023-04-10T15:21:12;5.30;99.90
65462;DHT22;53236;43.666;18.444;2023-04-10T15:23:38;5.30;99.90
65462;DHT22;53236;43.666;18.444;2023-04-10T15:26:04;5.30;99.90
65462;DHT22;53236;43.666;18.444;2023-04-10T15:28:35;5.30;99.90
65462;DHT22;53236;43.666;18.444;2023-04-10T15:31:01;5.30;99.90
65462;DHT22;53236;43.666;18.444;2023-04-10T15:33:26;5.30;99.90
65462;DHT22;53236;43.666;18.444;2023-04-10T15:35:52;5.30;99.90
65462;DHT22;53236;43.666;18.444;2023-04-10T15:38:18;5.40;99.90
65462;DHT22;53236;43.666;18.444;2023-04-10T15:40:44;5.50;99.90
65462;DHT22;53236;43.666;18.444;2023-04-10T15:43:09;5.60;99.90
65462;DHT22;53236;43.666;18.444;2023-04-10T15:45:35;5.60;99.90
65462;DHT22;53236;43.666;18.444;2023-04-10T15:48:02;5.60;99.90
65462;DHT22;53236;43.666;18.444;2023-04-10T15:50:28;5.70;99.90
65462;DHT22;53236;43.666;18.444;2023-04-10T15:52:54;5.70;99.90
65462;DHT22;53236;43.666;18.444;2023-04-10T15:55:20;5.80;99.90
65462;DHT22;53236;43.666;18.444;2023-04-10T15:57:46;5.80;99.90
65462;DHT22;53236;43.666;18.444;2023-04-10T16:00:12;5.80;99.90
65462;DHT22;53236;43.666;18.444;2023-04-10T16:02:38;5.90;99.90
65462;DHT22;53236;43.666;18.444;2023-04-10T16:05:04;5.90;99.90
65462;DHT22;53236;43.666;18.444;2023-04-10T16:07:32;6.00;99.90
65462;DHT22;53236;43.666;18.444;2023-04-10T16:09:58;6.00;99.90
65462;DHT22;53236;43.666;18.444;2023-04-10T16:12:24;5.90;99.90
65462;DHT22;53236;43.666;18.444;2023-04-10T16:14:49;5.80;99.90
65462;DHT22;53236;43.666;18.444;2023-04-10T16:17:15;5.80;99.90